Albia, Iowa
Current Conditions -  °F | °C
As of 2:53 AM on Sunday 26 Oct 2014 (Local Time) from KOTM Reporting Station
Clear Clear  
Wind Chill:   Ceiling: Unl
Heat Index:   Visibility: 10mi
Dew Point:   Wind: 6mph
Humidity: 63%   Direction: 60°ENE
Pressure: 30.03"   Gusts: NA
Location:  41.03°N, 92.81°W
Report Text: KOTM 260753Z AUTO 06005KT 10SM CLR 09/02 A3003 RMK AO2 SLP167 T00890022
Loading
Personal Weather Stations






























Interactive Weather Map
Tropical Storm Tracking
New forecast layout! Learn more

10-Day Weather Forecast

Advertisements
Track Severe Weather on mobile